Time;durP1;ratioP1;P1;durP2;ratioP2;P2;SDS_P1;SDS_P2;PMS_P1;PMS_P2;Temp;Humidity;BMP_temperature;BMP_pressure;BME280_temperature;BME280_humidity;BME280_pressure;Samples;Min_cycle;Max_cycle;Signal;HPM_P1;HPM_P2
2022/12/31 00:02:59;;;;;;;16.13;8.17;;;;;;;;;;6295782;22;20149;-90
2022/12/31 00:06:14;;;;;;;16.00;8.57;;;;;;;;;;6296701;22;20164;-90
2022/12/31 00:09:19;;;;;;;16.80;8.33;;;;;;;;;;6297662;22;20296;-90
2022/12/31 00:12:24;;;;;;;24.00;10.50;;;;;;;;;;6297342;22;20674;-89
2022/12/31 00:15:30;;;;;;;19.40;9.40;;;;;;;;;;6294546;22;20283;-89
2022/12/31 00:18:35;;;;;;;17.57;9.80;;;;;;;;;;6296112;22;20229;-86
2022/12/31 00:21:41;;;;;;;19.42;10.07;;;;;;;;;;6296563;22;20173;-89
2022/12/31 00:24:45;;;;;;;23.83;10.57;;;;;;;;;;6296273;22;20189;-89
2022/12/31 00:27:50;;;;;;;18.70;10.07;;;;;;;;;;6298864;22;20168;-90
2022/12/31 00:30:55;;;;;;;17.50;10.23;;;;;;;;;;6297691;22;20280;-90
2022/12/31 00:34:00;;;;;;;22.93;11.67;;;;;;;;;;6297140;22;20508;-89
2022/12/31 00:37:07;;;;;;;17.43;10.13;;;;;;;;;;6297263;22;20169;-89
2022/12/31 00:40:16;;;;;;;19.77;10.83;;;;;;;;;;6297894;22;20165;-89
2022/12/31 00:43:21;;;;;;;25.30;11.77;;;;;;;;;;6296817;22;20165;-88
2022/12/31 00:46:27;;;;;;;22.97;11.00;;;;;;;;;;6296934;22;20216;-89
2022/12/31 00:49:32;;;;;;;23.03;11.73;;;;;;;;;;6297647;22;20183;-89
2022/12/31 00:52:38;;;;;;;29.47;15.17;;;;;;;;;;6297759;22;20165;-89
2022/12/31 00:55:43;;;;;;;25.27;12.20;;;;;;;;;;6298062;22;20185;-89
2022/12/31 00:58:48;;;;;;;25.57;13.03;;;;;;;;;;6298214;22;20264;-91
2022/12/31 01:01:53;;;;;;;45.70;23.50;;;;;;;;;;6297941;22;20170;-90
2022/12/31 01:04:58;;;;;;;32.27;14.83;;;;;;;;;;6296015;22;20268;-89
2022/12/31 01:08:04;;;;;;;25.10;13.17;;;;;;;;;;6297981;22;20228;-90
2022/12/31 01:11:21;;;;;;;25.70;12.63;;;;;;;;;;6297325;22;20184;-90
2022/12/31 01:14:25;;;;;;;23.02;12.55;;;;;;;;;;6296712;22;20229;-91
2022/12/31 01:17:30;;;;;;;27.27;13.80;;;;;;;;;;6296628;22;20215;-90
2022/12/31 01:20:37;;;;;;;28.35;13.68;;;;;;;;;;6294643;22;20161;-89
2022/12/31 01:23:43;;;;;;;24.02;13.15;;;;;;;;;;6295936;22;20264;-89
2022/12/31 01:26:49;;;;;;;24.45;12.35;;;;;;;;;;6296721;22;20177;-89
2022/12/31 01:29:54;;;;;;;22.80;12.30;;;;;;;;;;6298322;22;20165;-89
2022/12/31 01:32:59;;;;;;;24.73;11.93;;;;;;;;;;6297272;22;20173;-89
2022/12/31 01:36:05;;;;;;;20.87;11.73;;;;;;;;;;6313651;22;20211;-89
2022/12/31 01:39:12;;;;;;;18.27;10.63;;;;;;;;;;6296400;22;20163;-88
2022/12/31 01:42:17;;;;;;;24.35;12.15;;;;;;;;;;6295698;22;20279;-90
2022/12/31 01:45:27;;;;;;;22.50;11.90;;;;;;;;;;6295559;22;20200;-90
2022/12/31 01:48:32;;;;;;;24.05;13.52;;;;;;;;;;6296355;22;20575;-89
2022/12/31 01:51:37;;;;;;;26.20;12.57;;;;;;;;;;6294747;22;20619;-89
2022/12/31 01:54:45;;;;;;;32.13;13.60;;;;;;;;;;6295754;22;20267;-89
2022/12/31 01:57:52;;;;;;;30.55;14.95;;;;;;;;;;6296469;22;20166;-90
2022/12/31 02:00:58;;;;;;;25.23;13.73;;;;;;;;;;6295648;22;20169;-89
2022/12/31 02:04:06;;;;;;;27.80;14.07;;;;;;;;;;6295317;22;20275;-90
2022/12/31 02:07:12;;;;;;;26.87;14.40;;;;;;;;;;6295745;22;20174;-89
2022/12/31 02:10:18;;;;;;;26.27;12.98;;;;;;;;;;6295881;22;20177;-90
2022/12/31 02:13:23;;;;;;;28.05;14.55;;;;;;;;;;6296419;22;20504;-89
2022/12/31 02:16:31;;;;;;;32.53;15.20;;;;;;;;;;6296259;22;20173;-90
2022/12/31 02:19:49;;;;;;;26.45;13.63;;;;;;;;;;6296575;22;20165;-89
2022/12/31 02:23:06;;;;;;;29.20;15.67;;;;;;;;;;6293697;22;20170;-90
2022/12/31 02:26:22;;;;;;;30.87;15.50;;;;;;;;;;6294654;22;20204;-90
2022/12/31 02:29:56;;;;;;;29.48;14.13;;;;;;;;;;6296013;22;20161;-90
2022/12/31 02:33:09;;;;;;;28.63;14.83;;;;;;;;;;6296000;22;20165;-89
2022/12/31 02:36:18;;;;;;;28.42;14.50;;;;;;;;;;6296131;22;20161;-89
2022/12/31 02:39:23;;;;;;;26.98;13.95;;;;;;;;;;6297456;22;20324;-90
2022/12/31 02:42:28;;;;;;;26.52;14.10;;;;;;;;;;6295837;22;20181;-90
2022/12/31 02:45:36;;;;;;;27.45;13.70;;;;;;;;;;6295136;22;20308;-87
2022/12/31 02:48:48;;;;;;;26.13;14.07;;;;;;;;;;6296529;22;20181;-90
2022/12/31 02:51:55;;;;;;;24.92;13.43;;;;;;;;;;6296149;22;20145;-88
2022/12/31 02:55:03;;;;;;;26.23;13.68;;;;;;;;;;6298979;22;20157;-90
2022/12/31 02:58:13;;;;;;;28.00;14.23;;;;;;;;;;6300668;22;20295;-91
2022/12/31 03:04:46;;;;;;;30.02;13.52;;;;;;;;;;6300469;22;20643;-90
2022/12/31 03:07:52;;;;;;;24.92;13.30;;;;;;;;;;6301472;22;20203;-89
2022/12/31 03:10:57;;;;;;;23.15;12.65;;;;;;;;;;6299762;22;20172;-89
2022/12/31 03:14:01;;;;;;;23.75;13.30;;;;;;;;;;6299250;22;20275;-90
2022/12/31 03:17:06;;;;;;;32.03;14.53;;;;;;;;;;6299304;22;20488;-88
2022/12/31 03:23:36;;;;;;;28.55;13.88;;;;;;;;;;6299491;22;20165;-89
2022/12/31 03:26:40;;;;;;;26.77;14.25;;;;;;;;;;6299946;22;20520;-89
2022/12/31 03:29:45;;;;;;;28.30;14.40;;;;;;;;;;6300401;22;20165;-89
2022/12/31 03:32:51;;;;;;;26.70;13.30;;;;;;;;;;6299381;22;20165;-88
2022/12/31 03:35:58;;;;;;;31.52;14.68;;;;;;;;;;6297492;22;20611;-89
2022/12/31 03:39:03;;;;;;;27.35;14.00;;;;;;;;;;6299203;22;20157;-89
2022/12/31 03:42:08;;;;;;;26.85;13.90;;;;;;;;;;6299184;22;20468;-89
2022/12/31 03:45:15;;;;;;;27.58;15.05;;;;;;;;;;6299022;22;20248;-90
2022/12/31 03:48:19;;;;;;;29.00;14.10;;;;;;;;;;6299118;22;20577;-90
2022/12/31 03:51:26;;;;;;;23.92;13.77;;;;;;;;;;6297378;22;20619;-89
2022/12/31 03:54:31;;;;;;;33.20;15.52;;;;;;;;;;6299221;22;20149;-90
2022/12/31 03:57:36;;;;;;;24.42;13.48;;;;;;;;;;6298110;22;20192;-89
2022/12/31 04:00:41;;;;;;;27.63;14.60;;;;;;;;;;6298882;22;20168;-89
2022/12/31 04:03:45;;;;;;;26.15;14.13;;;;;;;;;;6297971;22;20165;-90
2022/12/31 04:06:52;;;;;;;28.42;14.48;;;;;;;;;;6296189;22;20197;-89
2022/12/31 04:09:57;;;;;;;25.33;12.85;;;;;;;;;;6298446;22;20153;-91
2022/12/31 04:13:03;;;;;;;23.88;12.55;;;;;;;;;;6298106;22;20165;-89
2022/12/31 04:16:08;;;;;;;22.25;12.13;;;;;;;;;;6298967;22;20188;-90
2022/12/31 04:19:13;;;;;;;27.10;13.45;;;;;;;;;;6300270;22;20207;-90
2022/12/31 04:22:20;;;;;;;26.60;13.77;;;;;;;;;;6298692;22;20161;-90
2022/12/31 04:25:25;;;;;;;28.58;14.68;;;;;;;;;;6300702;22;20192;-90
2022/12/31 04:28:31;;;;;;;29.27;15.23;;;;;;;;;;6300303;22;20263;-88
2022/12/31 04:31:36;;;;;;;29.85;15.63;;;;;;;;;;6300144;22;20164;-89
2022/12/31 04:34:41;;;;;;;30.13;15.40;;;;;;;;;;6300435;22;20165;-90
2022/12/31 04:37:48;;;;;;;32.38;16.23;;;;;;;;;;6299792;22;20608;-89
2022/12/31 04:44:16;;;;;;;27.48;14.65;;;;;;;;;;6297970;22;20237;-91
2022/12/31 04:47:22;;;;;;;29.60;15.93;;;;;;;;;;6296556;22;20185;-91
2022/12/31 04:50:27;;;;;;;30.65;15.57;;;;;;;;;;6298196;22;20178;-90
2022/12/31 04:53:34;;;;;;;26.48;14.93;;;;;;;;;;6296527;22;20173;-90
2022/12/31 04:56:39;;;;;;;30.25;15.60;;;;;;;;;;6298241;22;20153;-90
2022/12/31 04:59:44;;;;;;;30.05;14.82;;;;;;;;;;6296952;22;20222;-90
2022/12/31 05:02:50;;;;;;;28.40;14.55;;;;;;;;;;6297934;22;20181;-91
2022/12/31 05:05:55;;;;;;;27.42;15.60;;;;;;;;;;6297473;22;20203;-89
2022/12/31 05:09:01;;;;;;;28.90;15.20;;;;;;;;;;6297747;22;20161;-88
2022/12/31 05:12:07;;;;;;;29.88;15.15;;;;;;;;;;6300389;22;20145;-89
2022/12/31 05:15:12;;;;;;;31.05;16.48;;;;;;;;;;6301047;22;20181;-91
2022/12/31 05:18:17;;;;;;;31.02;15.55;;;;;;;;;;6301682;22;20161;-90
2022/12/31 05:21:22;;;;;;;28.42;14.63;;;;;;;;;;6302462;22;20169;-90
2022/12/31 05:24:28;;;;;;;27.20;14.98;;;;;;;;;;6301470;22;20165;-89
2022/12/31 05:27:34;;;;;;;29.25;14.77;;;;;;;;;;6300301;22;20157;-89
2022/12/31 05:30:39;;;;;;;30.98;15.50;;;;;;;;;;6301503;22;20169;-91
2022/12/31 05:33:44;;;;;;;27.30;14.77;;;;;;;;;;6302057;22;20234;-89
2022/12/31 05:36:49;;;;;;;29.25;15.38;;;;;;;;;;6302034;22;20177;-90
2022/12/31 05:39:55;;;;;;;28.83;14.75;;;;;;;;;;6300744;22;20276;-89
2022/12/31 05:43:01;;;;;;;29.95;14.95;;;;;;;;;;6298525;22;20308;-86
2022/12/31 05:46:05;;;;;;;32.67;16.10;;;;;;;;;;6301204;22;20195;-90
2022/12/31 05:49:11;;;;;;;30.98;16.08;;;;;;;;;;6290521;22;20254;-90
2022/12/31 05:52:16;;;;;;;37.08;19.90;;;;;;;;;;6257750;22;20197;-89
2022/12/31 05:55:23;;;;;;;45.92;23.40;;;;;;;;;;6191931;23;20557;-90
2022/12/31 05:58:28;;;;;;;36.67;16.88;;;;;;;;;;5982723;23;20242;-88
2022/12/31 06:01:33;;;;;;;48.90;22.25;;;;;;;;;;5838448;24;20262;-89
2022/12/31 07:19:36;;;;;;;36.60;17.88;;;;;;;;;;6286658;22;20188;-90
2022/12/31 07:22:41;;;;;;;35.65;18.77;;;;;;;;;;6315091;22;20233;-89
2022/12/31 07:25:49;;;;;;;39.80;18.35;;;;;;;;;;6341327;22;20206;-88
2022/12/31 07:29:00;;;;;;;42.35;18.00;;;;;;;;;;6306919;22;20555;-89
2022/12/31 07:32:11;;;;;;;35.85;17.55;;;;;;;;;;5925720;23;1346121;-89
2022/12/31 07:35:22;;;;;;;37.33;17.75;;;;;;;;;;5797915;24;20250;-90
2022/12/31 07:38:30;;;;;;;35.65;18.83;;;;;;;;;;5862378;24;20257;-90
2022/12/31 07:41:41;;;;;;;38.55;18.60;;;;;;;;;;5918114;24;20196;-89
2022/12/31 07:45:01;;;;;;;43.88;20.65;;;;;;;;;;5849140;24;20228;-90
2022/12/31 07:48:23;;;;;;;34.35;17.60;;;;;;;;;;5768936;24;20286;-89
2022/12/31 07:51:43;;;;;;;35.63;18.40;;;;;;;;;;5391522;25;20211;-88
2022/12/31 07:55:03;;;;;;;33.03;16.35;;;;;;;;;;5429476;26;20292;-88
2022/12/31 08:08:23;;;;;;;34.35;17.83;;;;;;;;;;6267263;22;1278910;-89
2022/12/31 08:11:33;;;;;;;30.27;15.60;;;;;;;;;;6266823;23;20162;-90
2022/12/31 08:14:43;;;;;;;36.25;19.65;;;;;;;;;;6265781;22;20166;-89
2022/12/31 08:17:48;;;;;;;38.17;18.63;;;;;;;;;;6265708;22;20150;-88
2022/12/31 08:20:59;;;;;;;34.55;17.77;;;;;;;;;;6266576;22;20238;-89
2022/12/31 08:24:11;;;;;;;35.95;17.83;;;;;;;;;;6265387;22;20193;-89
2022/12/31 08:27:22;;;;;;;33.10;17.92;;;;;;;;;;6266161;23;20165;-88
2022/12/31 08:30:37;;;;;;;41.05;20.67;;;;;;;;;;6273585;22;20170;-86
2022/12/31 08:33:48;;;;;;;60.53;29.77;;;;;;;;;;6279363;22;20167;-88
2022/12/31 08:40:21;;;;;;;30.52;16.33;;;;;;;;;;6277452;22;20197;-89
2022/12/31 08:43:33;;;;;;;36.70;17.40;;;;;;;;;;6267701;22;20170;-91
2022/12/31 08:46:43;;;;;;;31.17;16.38;;;;;;;;;;6267166;22;20185;-88
2022/12/31 08:49:49;;;;;;;31.98;15.85;;;;;;;;;;6266557;23;20262;-89
2022/12/31 08:52:54;;;;;;;34.38;16.55;;;;;;;;;;6266209;22;20169;-89
2022/12/31 08:56:05;;;;;;;30.17;15.77;;;;;;;;;;6265556;22;20281;-90
2022/12/31 08:59:15;;;;;;;35.70;15.63;;;;;;;;;;6266424;23;20174;-89
2022/12/31 09:02:34;;;;;;;32.97;16.30;;;;;;;;;;6265771;22;20154;-91
2022/12/31 09:05:46;;;;;;;31.25;16.02;;;;;;;;;;6264603;22;20252;-90
2022/12/31 09:08:57;;;;;;;32.33;15.70;;;;;;;;;;6293528;22;20195;-90
2022/12/31 09:12:06;;;;;;;31.95;16.48;;;;;;;;;;6303571;22;20203;-88
2022/12/31 09:15:14;;;;;;;38.58;19.42;;;;;;;;;;6303126;22;20623;-89
2022/12/31 09:18:20;;;;;;;34.53;17.95;;;;;;;;;;6302914;22;20204;-87
2022/12/31 09:21:25;;;;;;;41.72;19.73;;;;;;;;;;6299824;22;20251;-88
2022/12/31 09:24:30;;;;;;;43.20;18.92;;;;;;;;;;6300857;22;20211;-88
2022/12/31 09:27:40;;;;;;;35.78;18.02;;;;;;;;;;6302096;22;20165;-89
2022/12/31 09:30:49;;;;;;;42.72;20.60;;;;;;;;;;6302052;22;20171;-88
2022/12/31 09:33:57;;;;;;;37.28;19.02;;;;;;;;;;6300907;22;20277;-88
2022/12/31 09:37:04;;;;;;;42.17;20.08;;;;;;;;;;6299408;22;20239;-88
2022/12/31 09:40:19;;;;;;;29.13;15.73;;;;;;;;;;6301310;22;20172;-88
2022/12/31 09:43:49;;;;;;;32.30;15.57;;;;;;;;;;6300099;22;20628;-89
2022/12/31 10:08:10;;;;;;;31.38;16.70;;;;;;;;;;6118870;22;2401353;-89
2022/12/31 10:11:19;;;;;;;37.38;20.30;;;;;;;;;;6206128;23;20155;-89
2022/12/31 10:14:30;;;;;;;32.75;17.20;;;;;;;;;;6204618;23;20167;-89
2022/12/31 10:17:42;;;;;;;25.58;14.45;;;;;;;;;;6206919;23;20190;-88
2022/12/31 10:20:51;;;;;;;24.33;12.95;;;;;;;;;;6205464;23;20176;-90
2022/12/31 10:24:05;;;;;;;26.25;13.43;;;;;;;;;;6204345;23;20504;-91
2022/12/31 10:27:21;;;;;;;34.60;18.52;;;;;;;;;;6204727;23;20194;-89
2022/12/31 10:30:31;;;;;;;25.48;13.82;;;;;;;;;;6203400;23;20195;-90
2022/12/31 10:33:42;;;;;;;23.73;12.73;;;;;;;;;;6205695;23;20558;-91
2022/12/31 10:36:52;;;;;;;32.97;17.13;;;;;;;;;;6206190;23;20167;-89
2022/12/31 10:40:05;;;;;;;26.52;13.90;;;;;;;;;;6206248;23;20175;-89
2022/12/31 10:43:31;;;;;;;31.90;16.08;;;;;;;;;;6206256;23;20171;-88
2022/12/31 10:46:50;;;;;;;21.77;12.55;;;;;;;;;;6205104;23;20172;-89
2022/12/31 10:50:22;;;;;;;22.85;12.55;;;;;;;;;;6205405;23;20179;-89
2022/12/31 10:53:42;;;;;;;19.70;11.52;;;;;;;;;;6204947;23;20611;-89
2022/12/31 10:57:08;;;;;;;23.13;12.43;;;;;;;;;;6203547;23;20246;-90
2022/12/31 11:00:17;;;;;;;25.30;12.57;;;;;;;;;;6199273;23;20219;-89
2022/12/31 11:03:49;;;;;;;23.20;12.00;;;;;;;;;;6196724;23;20184;-89
2022/12/31 11:07:07;;;;;;;21.85;10.93;;;;;;;;;;6151152;23;20192;-88
2022/12/31 11:10:24;;;;;;;21.63;11.38;;;;;;;;;;6198465;23;20233;-88
2022/12/31 11:13:44;;;;;;;23.35;13.35;;;;;;;;;;6198023;23;20176;-90
2022/12/31 11:17:01;;;;;;;19.20;11.13;;;;;;;;;;6198512;23;20176;-90
2022/12/31 11:20:24;;;;;;;19.10;10.50;;;;;;;;;;6198366;23;20288;-90
2022/12/31 11:23:36;;;;;;;18.02;11.32;;;;;;;;;;6199860;23;20191;-88
2022/12/31 11:26:45;;;;;;;15.77;9.48;;;;;;;;;;6199208;23;20205;-90
2022/12/31 11:30:01;;;;;;;18.50;9.48;;;;;;;;;;6199108;23;20191;-90
2022/12/31 11:33:19;;;;;;;18.33;10.45;;;;;;;;;;6196551;23;20171;-89
2022/12/31 11:36:29;;;;;;;24.25;10.80;;;;;;;;;;6196106;23;20171;-89
2022/12/31 11:39:40;;;;;;;18.08;11.55;;;;;;;;;;6197088;23;20172;-88
2022/12/31 11:42:51;;;;;;;27.75;15.65;;;;;;;;;;6197494;23;20163;-89
2022/12/31 11:46:04;;;;;;;17.73;10.77;;;;;;;;;;6196966;23;20168;-90
2022/12/31 11:49:19;;;;;;;40.85;20.23;;;;;;;;;;6197091;23;20188;-90
2022/12/31 11:52:34;;;;;;;338.80;150.95;;;;;;;;;;6195542;23;20242;-89
2022/12/31 11:55:42;;;;;;;26.02;14.23;;;;;;;;;;6197044;23;20172;-89
2022/12/31 11:58:48;;;;;;;18.55;9.40;;;;;;;;;;6197738;23;20167;-89
2022/12/31 12:01:58;;;;;;;16.23;8.57;;;;;;;;;;6197987;23;20203;-88
2022/12/31 12:05:07;;;;;;;14.95;8.95;;;;;;;;;;6197140;23;20160;-87
2022/12/31 12:08:12;;;;;;;17.42;9.77;;;;;;;;;;6195211;23;20252;-87
2022/12/31 12:11:21;;;;;;;44.40;18.98;;;;;;;;;;6196004;23;20180;-88
2022/12/31 12:14:31;;;;;;;20.98;11.00;;;;;;;;;;6193995;23;20167;-88
2022/12/31 12:17:36;;;;;;;16.95;9.57;;;;;;;;;;6195433;23;20152;-88
2022/12/31 12:20:45;;;;;;;14.40;8.75;;;;;;;;;;6196559;23;20168;-88
2022/12/31 12:23:57;;;;;;;13.50;8.13;;;;;;;;;;6193486;23;20191;-88
2022/12/31 12:27:02;;;;;;;14.77;8.65;;;;;;;;;;6195109;23;20180;-88
2022/12/31 12:30:33;;;;;;;18.92;10.25;;;;;;;;;;6195635;23;20580;-88
2022/12/31 12:33:42;;;;;;;19.17;12.82;;;;;;;;;;6200975;23;20252;-88
2022/12/31 12:36:49;;;;;;;15.40;8.90;;;;;;;;;;6194906;23;20184;-88
2022/12/31 12:39:57;;;;;;;16.98;8.98;;;;;;;;;;6195180;23;20171;-90
2022/12/31 12:43:03;;;;;;;15.88;8.70;;;;;;;;;;6196479;23;20168;-89
2022/12/31 12:46:17;;;;;;;18.88;10.57;;;;;;;;;;6196581;23;20168;-88
2022/12/31 12:49:24;;;;;;;19.80;9.90;;;;;;;;;;6195091;23;20195;-89
2022/12/31 12:52:47;;;;;;;17.35;9.48;;;;;;;;;;6196153;23;20200;-89
2022/12/31 12:56:00;;;;;;;14.23;8.45;;;;;;;;;;6196725;23;20230;-89
2022/12/31 12:59:18;;;;;;;16.73;9.32;;;;;;;;;;6194832;23;20188;-87
2022/12/31 13:02:48;;;;;;;14.40;8.15;;;;;;;;;;6195063;23;20262;-89
2022/12/31 13:06:00;;;;;;;21.60;10.05;;;;;;;;;;6101489;23;20266;-88
2022/12/31 13:09:19;;;;;;;19.75;10.88;;;;;;;;;;6204000;23;20210;-89
2022/12/31 13:12:31;;;;;;;28.05;15.05;;;;;;;;;;6162533;23;20188;-88
2022/12/31 13:15:41;;;;;;;22.75;13.23;;;;;;;;;;6113921;23;20193;-89
2022/12/31 13:18:52;;;;;;;21.75;11.65;;;;;;;;;;5914728;24;20213;-89
2022/12/31 13:22:01;;;;;;;14.48;8.52;;;;;;;;;;5964159;24;20177;-89
2022/12/31 13:25:16;;;;;;;17.55;8.90;;;;;;;;;;5980259;24;20642;-88
2022/12/31 13:28:23;;;;;;;16.45;7.88;;;;;;;;;;5979568;24;20181;-88
2022/12/31 13:31:32;;;;;;;12.20;7.50;;;;;;;;;;5980412;24;20173;-88
2022/12/31 13:34:40;;;;;;;12.82;7.68;;;;;;;;;;5964909;24;20177;-88
2022/12/31 13:37:47;;;;;;;21.80;12.00;;;;;;;;;;5967140;24;20602;-89
2022/12/31 13:40:56;;;;;;;18.20;9.82;;;;;;;;;;5965749;24;20236;-89
2022/12/31 13:44:05;;;;;;;26.38;14.05;;;;;;;;;;5980016;24;20199;-90
2022/12/31 13:47:12;;;;;;;32.88;15.93;;;;;;;;;;5965507;24;20181;-89
2022/12/31 13:50:20;;;;;;;19.75;10.07;;;;;;;;;;5966190;24;20201;-89
2022/12/31 13:53:27;;;;;;;36.03;23.23;;;;;;;;;;5965746;24;20173;-91
2022/12/31 13:56:37;;;;;;;22.33;13.30;;;;;;;;;;5963013;24;20238;-90
2022/12/31 13:59:48;;;;;;;21.58;11.57;;;;;;;;;;5964996;24;20177;-90
2022/12/31 14:02:57;;;;;;;20.20;10.88;;;;;;;;;;5964854;24;20618;-90
2022/12/31 14:06:05;;;;;;;26.67;15.52;;;;;;;;;;5965015;24;20188;-89
2022/12/31 14:09:12;;;;;;;28.02;14.90;;;;;;;;;;5964389;24;20201;-90
2022/12/31 14:12:22;;;;;;;27.13;14.32;;;;;;;;;;5964423;24;20175;-89
2022/12/31 14:15:32;;;;;;;28.67;14.57;;;;;;;;;;5965788;24;20177;-89
2022/12/31 14:18:41;;;;;;;30.58;14.88;;;;;;;;;;6012246;23;20202;-90
2022/12/31 14:21:49;;;;;;;27.45;14.23;;;;;;;;;;6138005;23;20169;-89
2022/12/31 14:24:55;;;;;;;25.63;14.10;;;;;;;;;;6135636;23;20193;-89
2022/12/31 14:28:02;;;;;;;26.90;14.15;;;;;;;;;;6135695;23;20177;-88
2022/12/31 14:31:13;;;;;;;32.63;16.30;;;;;;;;;;6118968;23;20261;-90
2022/12/31 14:34:22;;;;;;;39.08;16.92;;;;;;;;;;6136404;23;20173;-90
2022/12/31 14:37:31;;;;;;;31.27;15.48;;;;;;;;;;6139616;23;20613;-89
2022/12/31 14:40:43;;;;;;;23.95;12.40;;;;;;;;;;6121874;23;20710;-89
2022/12/31 14:43:54;;;;;;;36.17;19.52;;;;;;;;;;6120714;23;20168;-90
2022/12/31 14:47:06;;;;;;;26.73;14.98;;;;;;;;;;6138555;23;20628;-89
2022/12/31 14:50:13;;;;;;;26.75;13.93;;;;;;;;;;6139266;23;20196;-90
2022/12/31 14:53:22;;;;;;;22.77;13.20;;;;;;;;;;6137170;23;20676;-89
2022/12/31 14:56:32;;;;;;;30.08;13.95;;;;;;;;;;6120563;23;20162;-89
2022/12/31 14:59:37;;;;;;;30.15;13.70;;;;;;;;;;6128420;23;20213;-87
2022/12/31 15:02:56;;;;;;;21.45;13.05;;;;;;;;;;6127128;23;20184;-90
2022/12/31 15:06:04;;;;;;;23.45;12.10;;;;;;;;;;6139930;23;20306;-88
2022/12/31 15:09:15;;;;;;;24.23;13.07;;;;;;;;;;6119864;23;20294;-89
2022/12/31 15:12:25;;;;;;;20.60;12.48;;;;;;;;;;6137793;23;20222;-91
2022/12/31 15:15:35;;;;;;;34.75;17.42;;;;;;;;;;6121691;23;20153;-89
2022/12/31 15:18:50;;;;;;;26.40;14.35;;;;;;;;;;6133691;23;20192;-88
2022/12/31 15:21:59;;;;;;;28.98;16.50;;;;;;;;;;6123388;23;20177;-88
2022/12/31 15:25:19;;;;;;;33.45;15.27;;;;;;;;;;6122514;23;20169;-88
2022/12/31 15:28:30;;;;;;;27.50;14.85;;;;;;;;;;6121970;23;20154;-88
2022/12/31 15:31:36;;;;;;;28.15;15.45;;;;;;;;;;6121442;23;20181;-90
2022/12/31 15:34:43;;;;;;;40.15;17.75;;;;;;;;;;6121121;23;20258;-88
2022/12/31 15:37:58;;;;;;;36.03;15.52;;;;;;;;;;6120417;23;20168;-90
2022/12/31 15:41:14;;;;;;;35.10;16.90;;;;;;;;;;6118745;23;20223;-90
2022/12/31 15:44:22;;;;;;;33.83;17.23;;;;;;;;;;6121037;23;20170;-87
2022/12/31 15:47:29;;;;;;;29.00;16.08;;;;;;;;;;6120704;23;20172;-90
2022/12/31 15:50:38;;;;;;;33.35;17.17;;;;;;;;;;6138193;23;20520;-89
2022/12/31 15:53:44;;;;;;;32.10;15.63;;;;;;;;;;6121165;23;20197;-89
2022/12/31 15:56:50;;;;;;;27.85;14.80;;;;;;;;;;6121407;23;20600;-90
2022/12/31 15:59:58;;;;;;;31.23;15.70;;;;;;;;;;6121298;23;20176;-89
2022/12/31 16:03:04;;;;;;;30.13;15.93;;;;;;;;;;6119862;23;20172;-88
2022/12/31 16:06:50;;;;;;;38.20;18.13;;;;;;;;;;6120043;23;20173;-89
2022/12/31 16:09:58;;;;;;;32.50;17.08;;;;;;;;;;6120356;23;20196;-88
2022/12/31 16:13:04;;;;;;;35.00;19.10;;;;;;;;;;6120143;23;20168;-88
2022/12/31 16:16:18;;;;;;;32.03;17.02;;;;;;;;;;6120679;23;20609;-89
2022/12/31 16:19:34;;;;;;;55.20;24.23;;;;;;;;;;6108123;23;20197;-87
2022/12/31 16:22:40;;;;;;;50.25;25.20;;;;;;;;;;6107773;23;20228;-87
2022/12/31 16:25:49;;;;;;;51.03;24.70;;;;;;;;;;6108473;23;20169;-87
2022/12/31 16:28:58;;;;;;;66.45;29.52;;;;;;;;;;6108326;23;20170;-88
2022/12/31 16:32:04;;;;;;;52.03;25.13;;;;;;;;;;6109796;23;20214;-89
2022/12/31 16:35:21;;;;;;;45.63;20.90;;;;;;;;;;6108913;23;20198;-90
2022/12/31 16:38:32;;;;;;;44.47;20.30;;;;;;;;;;6108772;23;20170;-89
2022/12/31 16:41:43;;;;;;;66.85;30.30;;;;;;;;;;6108060;23;20504;-89
2022/12/31 16:44:49;;;;;;;58.78;29.17;;;;;;;;;;6108483;23;20170;-91
2022/12/31 16:47:54;;;;;;;45.17;23.13;;;;;;;;;;6107686;23;20257;-89
2022/12/31 16:50:59;;;;;;;46.03;22.73;;;;;;;;;;6109633;23;20194;-89
2022/12/31 16:54:04;;;;;;;49.95;25.25;;;;;;;;;;6109871;23;20178;-89
2022/12/31 16:57:19;;;;;;;49.65;25.40;;;;;;;;;;6111571;23;20173;-90
2022/12/31 17:00:25;;;;;;;64.03;27.02;;;;;;;;;;6109875;23;20178;-91
2022/12/31 17:03:30;;;;;;;61.78;27.33;;;;;;;;;;6108831;23;20187;-89
2022/12/31 17:06:36;;;;;;;68.90;32.55;;;;;;;;;;6109413;23;20173;-87
2022/12/31 17:09:41;;;;;;;64.05;28.10;;;;;;;;;;6112458;23;20523;-89
2022/12/31 17:12:48;;;;;;;59.95;28.55;;;;;;;;;;6110043;23;20166;-90
2022/12/31 17:15:54;;;;;;;61.70;28.23;;;;;;;;;;6110189;23;20166;-88
2022/12/31 17:18:59;;;;;;;62.47;27.38;;;;;;;;;;6124645;23;20272;-90
2022/12/31 17:22:05;;;;;;;51.92;24.67;;;;;;;;;;6166566;23;20233;-87
2022/12/31 17:25:21;;;;;;;57.42;27.45;;;;;;;;;;6166388;23;20230;-89
2022/12/31 17:28:29;;;;;;;66.40;27.83;;;;;;;;;;6166355;23;20221;-88
2022/12/31 17:31:35;;;;;;;67.05;28.40;;;;;;;;;;6166037;23;20212;-89
2022/12/31 17:34:48;;;;;;;57.58;24.85;;;;;;;;;;6167379;23;20193;-89
2022/12/31 17:37:53;;;;;;;64.07;30.95;;;;;;;;;;6164367;23;20172;-90
2022/12/31 17:41:15;;;;;;;56.60;27.35;;;;;;;;;;6166330;23;20156;-88
2022/12/31 17:44:26;;;;;;;60.58;29.55;;;;;;;;;;6164137;23;20212;-89
2022/12/31 17:47:35;;;;;;;67.18;30.83;;;;;;;;;;6166276;23;20242;-90
2022/12/31 17:50:47;;;;;;;69.45;32.15;;;;;;;;;;6165529;23;20274;-90
2022/12/31 17:53:52;;;;;;;66.60;29.55;;;;;;;;;;6166335;23;20241;-89
2022/12/31 17:56:58;;;;;;;67.10;29.63;;;;;;;;;;6166424;23;20228;-90
2022/12/31 18:00:06;;;;;;;62.13;27.85;;;;;;;;;;6164507;23;20167;-89
2022/12/31 18:03:17;;;;;;;61.50;28.95;;;;;;;;;;6165293;23;20164;-90
2022/12/31 18:06:22;;;;;;;58.50;26.38;;;;;;;;;;6163986;23;20172;-88
2022/12/31 18:09:27;;;;;;;55.20;24.92;;;;;;;;;;6165433;23;20156;-89
2022/12/31 18:12:33;;;;;;;75.25;34.00;;;;;;;;;;6166411;23;20176;-88
2022/12/31 18:15:40;;;;;;;82.50;35.40;;;;;;;;;;6168190;23;20233;-88
2022/12/31 18:18:45;;;;;;;77.45;33.00;;;;;;;;;;6168291;23;20188;-89
2022/12/31 18:21:50;;;;;;;70.85;31.80;;;;;;;;;;6168607;23;20176;-89
2022/12/31 18:24:56;;;;;;;63.78;26.83;;;;;;;;;;6170619;23;20163;-88
2022/12/31 18:28:01;;;;;;;72.30;26.58;;;;;;;;;;6188089;23;20168;-91
2022/12/31 18:31:15;;;;;;;99.07;32.75;;;;;;;;;;6169366;23;20212;-88
2022/12/31 18:34:20;;;;;;;84.15;31.67;;;;;;;;;;6169535;23;20173;-89
2022/12/31 18:37:25;;;;;;;84.07;30.33;;;;;;;;;;6168091;23;20188;-87
2022/12/31 18:40:31;;;;;;;96.32;29.92;;;;;;;;;;6167929;23;20176;-90
2022/12/31 18:43:36;;;;;;;95.18;28.23;;;;;;;;;;6168241;23;20182;-88
2022/12/31 18:46:43;;;;;;;104.70;32.20;;;;;;;;;;6169436;23;20289;-87
2022/12/31 18:49:48;;;;;;;117.22;32.08;;;;;;;;;;6170419;23;20221;-90
2022/12/31 18:52:53;;;;;;;116.22;32.03;;;;;;;;;;6168713;23;20247;-89
2022/12/31 18:55:59;;;;;;;187.00;61.35;;;;;;;;;;6168725;23;20180;-89
2022/12/31 18:59:04;;;;;;;230.23;44.10;;;;;;;;;;6171668;23;20248;-89
2022/12/31 19:02:14;;;;;;;179.52;38.20;;;;;;;;;;6169615;23;20172;-88
2022/12/31 19:05:24;;;;;;;149.93;35.70;;;;;;;;;;6169298;23;20196;-89
2022/12/31 19:08:30;;;;;;;106.65;33.92;;;;;;;;;;6169110;23;20243;-89
2022/12/31 19:11:36;;;;;;;135.98;36.17;;;;;;;;;;6167532;23;20256;-88
2022/12/31 19:14:41;;;;;;;204.60;36.00;;;;;;;;;;6169290;23;20176;-89
2022/12/31 19:17:47;;;;;;;189.45;33.83;;;;;;;;;;6168140;23;20220;-92
2022/12/31 19:20:52;;;;;;;206.02;31.38;;;;;;;;;;6168477;23;20246;-88
2022/12/31 19:23:58;;;;;;;143.90;27.70;;;;;;;;;;6169053;23;20172;-87
2022/12/31 19:27:03;;;;;;;137.07;29.17;;;;;;;;;;6167657;23;20164;-91
2022/12/31 19:30:12;;;;;;;164.30;28.38;;;;;;;;;;6169589;23;20176;-88
2022/12/31 19:33:19;;;;;;;173.70;29.50;;;;;;;;;;6166645;23;20169;-90
2022/12/31 19:36:24;;;;;;;106.65;30.77;;;;;;;;;;6167853;23;20172;-88
2022/12/31 19:39:29;;;;;;;126.03;37.72;;;;;;;;;;6169306;23;20172;-89
2022/12/31 19:42:34;;;;;;;162.23;51.90;;;;;;;;;;6168535;23;20167;-89
2022/12/31 19:45:40;;;;;;;113.57;42.87;;;;;;;;;;6170319;23;20173;-89
2022/12/31 19:48:47;;;;;;;101.45;33.38;;;;;;;;;;6167336;23;20192;-88
2022/12/31 19:51:52;;;;;;;126.50;45.00;;;;;;;;;;6167546;23;20196;-87
2022/12/31 19:54:57;;;;;;;97.85;36.38;;;;;;;;;;6167839;23;20184;-88
2022/12/31 19:58:02;;;;;;;103.72;34.47;;;;;;;;;;6168319;23;20168;-89
2022/12/31 20:01:08;;;;;;;115.60;36.33;;;;;;;;;;6167300;23;20245;-88
2022/12/31 20:04:14;;;;;;;100.88;33.20;;;;;;;;;;6165780;23;20173;-90
2022/12/31 20:07:19;;;;;;;160.30;38.05;;;;;;;;;;6167962;23;20172;-90
2022/12/31 20:10:25;;;;;;;133.90;38.17;;;;;;;;;;6166607;23;20289;-88
2022/12/31 20:13:30;;;;;;;144.97;37.90;;;;;;;;;;6167990;23;20184;-89
2022/12/31 20:16:35;;;;;;;118.57;38.33;;;;;;;;;;6165071;23;20299;-89
2022/12/31 20:19:41;;;;;;;176.20;38.63;;;;;;;;;;6166698;23;20220;-91